Chicago, IL (60625)

4:04 AM CDT on October 01, 2016 (GMT -0500)
Albany Park | | Change Station

Elev 600 ft 41.97 °N, 87.71 °W | Updated 23 seconds ago

Mostly Cloudy
Mostly Cloudy
60.8 °F
Feels Like 60.8 °F
N
0.0
Wind Variable Wind from North
Gusts 0.0 mph

Today
High -- | Low -- °F
--% Chance of Precip.
Yesterday
High -- | Low -- °F
Precip. -- in
Pressure 30.04 in
Visibility 10.0 miles
Clouds Mostly Cloudy 2900 ft
Dew Point 56 °F
Humidity 84%
Rainfall 0.00 in
Snow Depth Not available.
6:48 AM 6:31 PM
New Moon, 0% visible
METAR KORD 010851Z 05004KT 10SM BKN029 15/13 A3004 RMK AO2 SLP170 T01500133 58001
Pressure 30.04 in
Visibility 10.0 miles
Clouds Mostly Cloudy 2900 ft
Dew Point 56 °F
Humidity 84%
Rainfall 0.00 in
Snow Depth Not available.
6:48 AM 6:31 PM
New Moon, 0% visible
METAR KORD 010851Z 05004KT 10SM BKN029 15/13 A3004 RMK AO2 SLP170 T01500133 58001

10-Day Weather Forecast

Almanac

Astronomy

Oct. 01, 2016 Rise Set
Actual Time
Civil Twilight
Nautical Twilight
Astronomical Twilight
Moon
Length of Visible Light
Length of Day
Tomorrow will be .
, % of the Moon is Illuminated

Today's Extremes

State Highs State Lows

Community

WunderPhotos

Upload Photos

1,942,898 photos uploaded!

WunderBlog® & News

Nearby

Air Quality

  Air Quality AQ Index Pollutant
Not available.

Snow Depth

Station Depth Elevation

Earthquake Activity

City Distance Mag. Time & Date
Minimum magnitude displayed is 2.5.

Coastal Water Temperatures

Place Temperature

Stations

Nearby Weather Stations

Station Location Temp. Windchill Dew Point Humidity Wind Precip. Elev Updated Type
                   

Watches & Warnings

There are currently no watches in effect.